createdAt,value
2018-12-13T05:00:17.825Z,9.93
2018-12-13T05:02:40.467Z,9.10
2018-12-13T05:05:03.443Z,7.90
2018-12-13T05:07:26.087Z,7.37
2018-12-13T05:09:48.737Z,7.93
2018-12-13T05:12:11.308Z,8.43
2018-12-13T05:14:33.940Z,8.23
2018-12-13T06:00:17.265Z,7.63
2018-12-13T06:02:54.096Z,7.43
2018-12-13T06:05:16.787Z,7.03
2018-12-13T06:07:39.500Z,7.40
2018-12-13T06:10:02.365Z,6.50
2018-12-13T06:12:24.961Z,6.77
2018-12-13T06:14:47.604Z,7.40
2018-12-13T07:00:29.047Z,7.20
2018-12-13T07:02:51.651Z,7.80
2018-12-13T07:05:14.213Z,8.53
2018-12-13T07:07:36.817Z,7.53
2018-12-13T07:09:59.408Z,8.37
2018-12-13T07:12:21.989Z,7.90
2018-12-13T07:14:44.578Z,8.00
2018-12-13T08:00:24.678Z,8.67
2018-12-13T08:02:47.445Z,9.67
2018-12-13T08:05:10.365Z,9.10
2018-12-13T08:07:33.279Z,9.03
2018-12-13T08:09:56.000Z,8.70
2018-12-13T08:12:18.671Z,9.23
2018-12-13T08:14:41.587Z,9.63
2018-12-13T09:00:17.598Z,10.13
2018-12-13T09:02:40.209Z,9.60
2018-12-13T09:05:02.957Z,9.97
2018-12-13T09:07:25.686Z,10.67
2018-12-13T09:09:54.640Z,10.50
2018-12-13T09:12:17.300Z,9.90
2018-12-13T09:14:39.962Z,9.70
2018-12-13T10:00:18.848Z,12.90
2018-12-13T10:02:42.313Z,12.30
2018-12-13T10:05:05.170Z,12.83
2018-12-13T10:07:48.607Z,13.27
2018-12-13T10:10:11.388Z,13.57
2018-12-13T10:12:59.683Z,13.47
2018-12-13T11:01:43.629Z,16.83
2018-12-13T11:04:06.243Z,15.80
2018-12-13T11:06:28.844Z,16.60
2018-12-13T11:08:51.513Z,15.97
2018-12-13T11:11:14.150Z,19.53
2018-12-13T11:13:37.048Z,16.80
2018-12-13T12:02:36.060Z,13.50
2018-12-13T12:04:58.821Z,16.40
2018-12-13T12:07:21.485Z,14.93
2018-12-13T12:09:45.548Z,14.70
2018-12-13T12:12:08.265Z,14.07
2018-12-13T12:14:30.957Z,13.93
2018-12-13T13:00:19.557Z,10.53
2018-12-13T15:02:10.204Z,11.97
2018-12-13T15:04:32.840Z,11.60
2018-12-13T15:06:55.525Z,10.43
2018-12-13T15:09:18.200Z,10.80
2018-12-13T15:11:40.799Z,11.03
2018-12-13T15:14:04.398Z,10.27
2018-12-13T16:02:38.308Z,9.13
2018-12-13T16:05:01.100Z,8.40
2018-12-13T16:07:23.757Z,9.73
2018-12-13T17:00:19.729Z,9.73
2018-12-13T17:02:43.025Z,10.47
2018-12-13T18:05:44.081Z,10.80
2018-12-13T18:08:06.721Z,10.83
2018-12-13T18:10:52.703Z,11.37
2018-12-13T18:13:16.413Z,11.67
2018-12-13T19:02:21.389Z,11.83
2018-12-13T19:04:44.019Z,12.13
2018-12-13T20:02:39.453Z,11.67
2018-12-13T20:05:02.162Z,12.00
2018-12-13T20:07:24.985Z,11.50
2018-12-13T20:10:07.762Z,11.23
2018-12-13T20:12:30.515Z,12.30
2018-12-13T20:14:53.887Z,12.03
2018-12-13T21:00:44.465Z,13.23
2018-12-13T21:03:07.104Z,14.73
2018-12-13T21:05:29.733Z,13.63
2018-12-13T21:08:08.917Z,13.90
2018-12-13T21:10:31.524Z,13.87
2018-12-13T21:12:54.108Z,14.27
